Time;durP1;ratioP1;P1;durP2;ratioP2;P2;SDS_P1;SDS_P2;PMS_P1;PMS_P2;Temp;Humidity;BMP_temperature;BMP_pressure;BME280_temperature;BME280_humidity;BME280_pressure;Samples;Min_cycle;Max_cycle;Signal;HPM_P1;HPM_P2
2022/10/30 00:07:11;;;;;;;13.98;9.43;;;;;;;21.78;64.51;101051.84;20988304;28;20086;-78
2022/10/30 00:17:14;;;;;;;14.07;8.93;;;;;;;21.77;64.60;101044.88;20988593;28;20043;-78
2022/10/30 00:27:14;;;;;;;13.45;9.25;;;;;;;21.77;64.35;101042.25;20991309;28;20051;-78
2022/10/30 00:37:14;;;;;;;14.00;9.70;;;;;;;21.75;64.32;101052.91;20993559;28;20043;-78
2022/10/30 00:47:29;;;;;;;13.57;9.10;;;;;;;21.76;64.14;101040.53;21002418;28;20037;-78
2022/10/30 00:57:30;;;;;;;14.10;9.80;;;;;;;;;;20974970;28;20529;-78
2022/10/30 01:07:31;;;;;;;13.98;9.77;;;;;;;21.74;63.94;101024.84;20932898;28;20052;-79
2022/10/30 01:17:49;;;;;;;13.07;9.45;;;;;;;;;;20985588;28;20047;-78
2022/10/30 01:28:04;;;;;;;14.50;9.93;;;;;;;21.74;64.29;100998.47;21015985;28;20300;-78
2022/10/30 01:38:13;;;;;;;13.48;9.45;;;;;;;21.73;64.19;100995.97;21010627;28;20502;-78
2022/10/30 01:48:30;;;;;;;13.57;9.73;;;;;;;21.73;63.96;101001.25;21004312;28;20055;-80
2022/10/30 01:58:40;;;;;;;12.65;9.40;;;;;;;21.71;64.08;101005.75;21015871;28;20037;-79
2022/10/30 02:08:41;;;;;;;13.20;9.30;;;;;;;21.69;64.22;101000.59;21006336;28;20040;-79
2022/10/30 02:18:41;;;;;;;14.45;9.90;;;;;;;21.68;63.98;101001.56;21006658;28;20040;-79
2022/10/30 02:28:42;;;;;;;12.38;9.23;;;;;;;21.69;64.10;101000.59;21005502;28;20068;-79
2022/10/30 02:38:43;;;;;;;13.15;8.82;;;;;;;21.69;63.85;100976.88;21004389;28;20036;-78
2022/10/30 02:48:44;;;;;;;13.10;9.27;;;;;;;21.70;63.50;100989.13;21005656;28;20143;-78
2022/10/30 02:58:44;;;;;;;12.70;9.20;;;;;;;21.68;63.34;100998.06;21010879;28;20032;-80
2022/10/30 03:08:45;;;;;;;11.98;9.10;;;;;;;21.68;63.66;100998.06;21001017;28;20084;-77
2022/10/30 03:18:46;;;;;;;13.05;9.52;;;;;;;21.68;63.39;101001.56;20995757;28;20209;-79
2022/10/30 03:28:46;;;;;;;12.93;9.85;;;;;;;21.68;63.13;101005.97;21001009;28;20448;-78
2022/10/30 03:38:47;;;;;;;13.50;9.60;;;;;;;21.66;63.06;100984.16;20995622;28;20059;-79
2022/10/30 03:48:49;;;;;;;13.88;9.68;;;;;;;21.67;63.36;100985.84;21009903;28;20356;-80
2022/10/30 03:58:49;;;;;;;13.63;9.67;;;;;;;21.63;63.58;100982.59;21003595;28;20041;-79
2022/10/30 04:08:49;;;;;;;12.68;9.40;;;;;;;21.64;63.45;100979.00;21007337;28;20060;-79
2022/10/30 04:18:50;;;;;;;12.38;9.82;;;;;;;21.63;63.29;100985.22;20992966;28;20036;-79
2022/10/30 04:28:50;;;;;;;12.10;9.52;;;;;;;21.63;63.32;100981.72;21004142;28;20044;-78
2022/10/30 04:38:51;;;;;;;13.35;10.20;;;;;;;21.62;63.08;100975.63;21001975;28;20051;-78
2022/10/30 04:48:52;;;;;;;15.10;10.40;;;;;;;21.61;63.34;100981.84;20994646;28;20131;-79
2022/10/30 04:58:53;;;;;;;12.75;10.10;;;;;;;21.60;63.14;100990.69;20989859;28;20048;-78
2022/10/30 05:08:54;;;;;;;12.55;9.60;;;;;;;21.59;63.24;100975.81;20999879;28;20048;-78
2022/10/30 05:18:54;;;;;;;15.88;12.18;;;;;;;21.65;63.01;101003.56;20998639;28;20181;-80
2022/10/30 05:29:01;;;;;;;14.45;11.32;;;;;;;21.68;63.48;100998.06;21002456;28;21085;-76
2022/10/30 05:39:01;;;;;;;18.73;12.68;;;;;;;;;;20977328;28;20029;-76
2022/10/30 05:49:03;;;;;;;19.10;13.80;;;;;;;21.80;64.06;101004.28;20980458;28;20055;-77
2022/10/30 05:59:03;;;;;;;18.55;14.23;;;;;;;21.84;64.21;101008.41;20997672;28;20398;-77
2022/10/30 06:09:04;;;;;;;18.55;13.52;;;;;;;21.87;63.75;101006.38;20976153;28;20036;-78
2022/10/30 06:19:05;;;;;;;19.48;13.68;;;;;;;21.93;64.44;101002.44;20985343;28;20051;-76
2022/10/30 06:29:06;;;;;;;24.02;14.20;;;;;;;22.00;64.83;101008.16;21000163;28;20479;-80
2022/10/30 06:39:06;;;;;;;20.88;12.63;;;;;;;22.02;64.73;101025.53;21008169;28;20491;-78
2022/10/30 06:49:07;;;;;;;16.67;12.98;;;;;;;22.01;62.97;101037.03;20995157;28;20635;-77
2022/10/30 06:59:11;;;;;;;19.52;12.50;;;;;;;22.02;62.56;101035.22;21000203;28;20042;-83
2022/10/30 07:09:12;;;;;;;17.50;11.90;;;;;;;22.03;62.74;101029.88;21001514;28;20098;-78
2022/10/30 07:19:13;;;;;;;19.60;11.75;;;;;;;22.03;62.23;101021.97;21015554;28;20036;-76
2022/10/30 07:29:13;;;;;;;20.48;11.40;;;;;;;22.02;62.44;101032.59;20990398;28;20060;-75
2022/10/30 07:39:14;;;;;;;22.63;12.25;;;;;;;21.94;55.77;101046.34;20985547;28;20047;-72
2022/10/30 07:49:14;;;;;;;20.63;12.48;;;;;;;21.88;59.02;101052.03;20966236;28;20071;-74
2022/10/30 07:59:14;;;;;;;20.63;11.95;;;;;;;21.87;60.12;101039.81;20969931;28;20036;-73
2022/10/30 08:09:15;;;;;;;18.23;10.98;;;;;;;21.91;60.77;101039.47;20979918;28;20048;-73
2022/10/30 08:19:15;;;;;;;15.40;10.25;;;;;;;21.95;60.93;101044.53;20975550;28;20406;-73
2022/10/30 08:29:16;;;;;;;19.63;10.80;;;;;;;21.95;60.93;101049.81;20975242;28;20055;-73
2022/10/30 08:39:18;;;;;;;14.40;8.70;;;;;;;21.98;61.37;101046.97;20982499;28;20351;-73
2022/10/30 08:49:19;;;;;;;13.43;9.13;;;;;;;21.98;61.49;101041.69;20969231;28;20048;-73
2022/10/30 08:59:19;;;;;;;15.10;8.82;;;;;;;21.99;61.49;101043.38;20980260;28;20037;-74
2022/10/30 09:09:19;;;;;;;13.90;8.60;;;;;;;21.99;61.33;101036.28;20968130;28;20048;-74
2022/10/30 09:19:20;;;;;;;12.70;8.10;;;;;;;21.97;61.70;101038.22;20988853;28;20050;-74
2022/10/30 09:29:21;;;;;;;13.30;8.40;;;;;;;21.99;61.91;101043.38;20986269;28;20098;-74
2022/10/30 09:39:22;;;;;;;13.40;8.00;;;;;;;21.98;61.34;101039.88;20986448;28;20098;-72
2022/10/30 09:49:47;;;;;;;11.70;8.00;;;;;;;21.98;61.61;101039.88;20987921;28;20048;-73
2022/10/30 09:59:56;;;;;;;11.15;7.63;;;;;;;21.99;62.00;101035.47;21011496;28;20394;-74
2022/10/30 10:10:03;;;;;;;12.18;8.20;;;;;;;21.98;61.79;101024.06;21007397;28;20071;-73
2022/10/30 10:20:10;;;;;;;12.63;8.35;;;;;;;21.94;61.51;101019.97;20992018;28;20055;-73
2022/10/30 10:30:21;;;;;;;9.93;7.75;;;;;;;21.93;61.78;101012.16;20985397;28;20039;-74
2022/10/30 10:40:30;;;;;;;10.73;7.32;;;;;;;21.91;62.00;101004.38;20991263;28;20040;-73
2022/10/30 10:50:35;;;;;;;11.07;7.32;;;;;;;21.90;61.63;101002.69;20987574;28;20626;-73
2022/10/30 11:00:36;;;;;;;11.18;7.75;;;;;;;21.88;61.81;100984.31;20984458;28;20036;-73
2022/10/30 11:10:37;;;;;;;10.82;7.47;;;;;;;21.89;61.72;100986.00;20980120;28;20105;-72
2022/10/30 11:20:50;;;;;;;9.82;7.22;;;;;;;21.89;61.88;100980.72;20981545;28;20033;-72
2022/10/30 11:31:12;;;;;;;9.45;6.95;;;;;;;21.90;61.47;100981.59;20977361;28;20160;-72
2022/10/30 11:41:13;;;;;;;9.68;7.00;;;;;;;21.91;61.60;100972.75;20990941;28;20040;-73
2022/10/30 11:51:30;;;;;;;11.15;7.97;;;;;;;21.93;61.64;100964.72;20984102;28;20158;-72
2022/10/30 12:01:35;;;;;;;10.80;7.60;;;;;;;21.93;61.20;100956.81;20990810;28;20051;-73
2022/10/30 12:11:37;;;;;;;13.55;8.05;;;;;;;21.94;61.31;100956.69;20969453;28;20510;-73
2022/10/30 12:21:44;;;;;;;8.98;6.88;;;;;;;21.96;61.12;100960.06;20975862;28;20036;-73
2022/10/30 12:31:51;;;;;;;8.75;6.80;;;;;;;21.96;60.74;100932.84;20983264;28;20529;-73
2022/10/30 12:42:16;;;;;;;9.98;7.03;;;;;;;21.98;60.78;100949.41;20981637;27;20075;-73
2022/10/30 12:52:38;;;;;;;9.77;7.28;;;;;;;21.98;60.54;100949.41;20982377;28;20051;-73
2022/10/30 13:02:55;;;;;;;10.05;7.07;;;;;;;21.97;60.54;100948.56;20979867;28;20628;-73
2022/10/30 13:13:02;;;;;;;9.27;6.93;;;;;;;21.97;60.70;100945.94;20979229;28;20036;-73
2022/10/30 13:23:10;;;;;;;10.20;7.35;;;;;;;21.94;60.38;100935.59;20990717;28;20456;-73
2022/10/30 13:33:32;;;;;;;8.20;6.47;;;;;;;21.93;60.67;100936.53;20995522;28;20098;-73
2022/10/30 13:43:50;;;;;;;8.47;6.43;;;;;;;21.90;60.76;100937.59;20999204;28;20040;-73
2022/10/30 13:54:07;;;;;;;10.23;7.10;;;;;;;21.91;60.87;100941.09;20992273;28;20285;-72
2022/10/30 14:04:36;;;;;;;8.77;6.47;;;;;;;21.90;60.84;100923.59;21003038;28;20041;-72
2022/10/30 14:14:46;;;;;;;9.88;6.65;;;;;;;21.89;60.96;100935.91;20987615;28;20040;-73
2022/10/30 14:24:47;;;;;;;8.25;6.57;;;;;;;21.88;60.83;100951.84;20991292;28;20528;-74
2022/10/30 14:34:50;;;;;;;9.00;6.82;;;;;;;21.87;61.04;100940.47;20995397;28;20102;-72
2022/10/30 14:45:07;;;;;;;9.18;6.55;;;;;;;21.88;60.83;100930.75;20989830;28;20126;-73
2022/10/30 14:55:32;;;;;;;11.82;7.43;;;;;;;21.84;60.81;100924.03;20975971;28;20051;-72
2022/10/30 15:05:47;;;;;;;14.88;7.20;;;;;;;21.87;61.07;100914.09;20954599;28;20395;-72
2022/10/30 15:16:05;;;;;;;18.95;10.10;;;;;;;21.97;62.61;100913.44;20966210;28;20071;-72
2022/10/30 15:26:07;;;;;;;18.83;11.90;;;;;;;22.04;65.91;100912.84;20974500;28;20067;-72
2022/10/30 15:36:22;;;;;;;20.30;12.02;;;;;;;22.05;65.77;100925.09;20965590;28;20036;-72
2022/10/30 15:46:22;;;;;;;19.60;11.50;;;;;;;22.08;65.42;100926.66;20957685;28;20035;-73
2022/10/30 15:56:28;;;;;;;17.92;10.40;;;;;;;22.06;64.82;100933.88;20968586;28;20067;-73
2022/10/30 16:06:30;;;;;;;13.32;9.25;;;;;;;22.07;64.43;100931.13;20981098;28;20709;-72
2022/10/30 16:16:32;;;;;;;19.17;9.67;;;;;;;22.04;64.14;100939.22;20991780;28;20070;-72
2022/10/30 16:26:36;;;;;;;13.43;8.93;;;;;;;22.08;64.06;100942.50;20982356;28;20311;-74
2022/10/30 16:36:39;;;;;;;16.38;8.38;;;;;;;22.09;64.78;100940.72;20981923;28;20065;-74
2022/10/30 16:46:47;;;;;;;11.52;7.50;;;;;;;22.10;64.61;100937.97;20977192;28;20037;-74
2022/10/30 16:56:51;;;;;;;12.63;8.02;;;;;;;22.12;64.31;100941.34;20978618;28;20777;-75
2022/10/30 17:07:03;;;;;;;11.35;7.10;;;;;;;22.15;64.87;100942.91;20963007;28;20356;-77
2022/10/30 17:17:23;;;;;;;11.50;7.53;;;;;;;22.18;64.16;100948.78;20973640;28;20528;-75
2022/10/30 17:27:27;;;;;;;9.32;6.82;;;;;;;22.20;64.32;100940.75;20987355;28;20127;-76
2022/10/30 17:37:27;;;;;;;8.88;6.72;;;;;;;22.22;64.27;100955.53;20992430;28;20039;-74
2022/10/30 17:47:28;;;;;;;9.00;6.38;;;;;;;22.22;64.30;100960.78;20967245;28;20032;-75
2022/10/30 17:57:28;;;;;;;8.18;6.30;;;;;;;22.24;64.28;100973.91;20973762;28;20093;-76
2022/10/30 18:07:29;;;;;;;7.65;5.82;;;;;;;22.24;64.23;100963.34;20984310;28;20039;-77
2022/10/30 18:17:29;;;;;;;8.75;6.43;;;;;;;22.28;64.07;100961.31;20979367;28;20043;-76
2022/10/30 18:27:29;;;;;;;11.27;6.40;;;;;;;22.29;63.95;100955.94;20986071;28;20040;-76
2022/10/30 18:37:30;;;;;;;9.32;6.28;;;;;;;22.29;63.87;100952.44;20999441;28;20028;-76
2022/10/30 18:47:30;;;;;;;10.27;6.75;;;;;;;22.30;63.89;100962.03;20978983;28;20096;-76
2022/10/30 18:57:30;;;;;;;8.75;6.07;;;;;;;22.30;63.75;100956.75;20987115;28;20442;-75
2022/10/30 19:07:33;;;;;;;11.35;6.32;;;;;;;22.33;63.83;100965.28;20978600;28;20089;-76
2022/10/30 19:17:33;;;;;;;12.20;6.57;;;;;;;22.33;63.59;100967.94;20971294;28;20032;-76
2022/10/30 19:27:34;;;;;;;10.63;6.75;;;;;;;22.33;63.37;100954.75;20993875;28;20059;-77
2022/10/30 19:37:35;;;;;;;11.65;7.13;;;;;;;22.30;63.86;100952.34;20981988;28;23389;-73
2022/10/30 19:47:35;;;;;;;21.27;7.50;;;;;;;22.29;63.53;100966.47;20965145;28;20040;-72
2022/10/30 19:57:35;;;;;;;14.05;8.07;;;;;;;22.24;63.71;100968.63;20932610;28;20805;-75
2022/10/30 20:07:36;;;;;;;12.63;8.70;;;;;;;22.20;63.42;100965.38;20961861;28;20100;-74
2022/10/30 20:17:36;;;;;;;15.48;8.55;;;;;;;22.14;63.60;100972.88;20979235;28;20575;-74
2022/10/30 20:27:37;;;;;;;13.02;8.30;;;;;;;22.12;63.97;100970.34;21002477;28;20041;-74
2022/10/30 20:37:40;;;;;;;14.68;8.55;;;;;;;22.18;64.01;100971.69;20964947;28;20024;-73
2022/10/30 20:47:40;;;;;;;13.55;8.38;;;;;;;22.19;64.32;100962.81;20968496;28;20540;-74
2022/10/30 20:57:41;;;;;;;12.80;8.15;;;;;;;22.17;63.67;100970.03;20984171;28;20674;-74
2022/10/30 21:07:41;;;;;;;12.05;7.65;;;;;;;22.14;64.40;100954.41;20974003;28;20044;-74
2022/10/30 21:17:42;;;;;;;13.50;7.65;;;;;;;22.12;64.42;100954.53;20972554;28;20386;-72
2022/10/30 21:27:42;;;;;;;11.25;7.95;;;;;;;22.10;64.13;100964.31;20966894;28;20040;-75
2022/10/30 21:37:42;;;;;;;9.27;6.82;;;;;;;22.07;64.20;100965.41;20971573;28;20161;-74
2022/10/30 21:47:43;;;;;;;8.77;6.53;;;;;;;22.03;64.73;100968.34;20996466;28;20637;-72
2022/10/30 21:57:43;;;;;;;10.15;7.18;;;;;;;21.97;64.21;100955.63;20980681;28;20930;-73
2022/10/30 22:07:43;;;;;;;12.13;7.68;;;;;;;21.98;64.39;100954.66;20977615;28;20464;-73
2022/10/30 22:17:44;;;;;;;9.30;6.90;;;;;;;21.97;64.59;100959.13;20985942;28;20041;-74
2022/10/30 22:27:45;;;;;;;9.68;6.68;;;;;;;21.94;64.52;100959.31;20975733;28;20063;-74
2022/10/30 22:37:46;;;;;;;10.67;6.53;;;;;;;21.94;64.42;100956.69;20980348;28;20028;-74
2022/10/30 22:47:46;;;;;;;9.07;6.30;;;;;;;21.93;64.50;100962.06;20978433;28;20036;-74
2022/10/30 22:57:51;;;;;;;9.63;6.97;;;;;;;21.91;64.62;100970.09;20987576;28;20052;-73
2022/10/30 23:07:51;;;;;;;8.43;6.63;;;;;;;21.89;64.35;100958.81;20976036;28;20044;-73
2022/10/30 23:17:53;;;;;;;10.60;7.03;;;;;;;21.88;63.89;100960.59;20978267;28;20036;-73
2022/10/30 23:27:53;;;;;;;9.00;6.25;;;;;;;21.86;64.15;100951.09;20979873;28;20044;-73
2022/10/30 23:37:54;;;;;;;11.98;7.25;;;;;;;21.85;63.92;100942.38;20974914;28;20039;-73
2022/10/30 23:47:54;;;;;;;8.30;6.30;;;;;;;21.84;63.87;100945.97;20979014;28;20044;-72
2022/10/30 23:57:54;;;;;;;10.32;7.20;;;;;;;21.85;64.07;100949.41;20979093;28;20037;-72
